createdAt,value
2022-11-16T00:01:40.400Z,52356.66
2022-11-16T00:04:13.502Z,52377.16
2022-11-16T00:06:46.177Z,52358.67
2022-11-16T00:09:23.982Z,52367.52
2022-11-16T00:11:56.472Z,52363.09
2022-11-16T00:14:29.752Z,52349.43
2022-11-16T00:17:01.483Z,52357.47
2022-11-16T00:19:33.153Z,52359.07
2022-11-16T00:22:02.973Z,52360.28
2022-11-16T00:24:34.544Z,52332.15
2022-11-16T00:27:04.525Z,52353.45
2022-11-16T00:29:36.070Z,52363.09
2022-11-16T00:32:06.175Z,52334.16
2022-11-16T00:34:37.725Z,52354.65
2022-11-16T00:37:09.513Z,52349.43
2022-11-16T00:39:40.989Z,52352.24
2022-11-16T00:42:16.716Z,52371.13
2022-11-16T00:44:48.253Z,52367.52
2022-11-16T00:47:19.701Z,52349.43
2022-11-16T00:49:51.268Z,52351.44
2022-11-16T00:52:22.842Z,52383.19
2022-11-16T00:54:54.871Z,52364.70
2022-11-16T00:57:26.531Z,52356.66
2022-11-16T00:59:56.716Z,52357.87
2022-11-16T01:02:29.494Z,52356.66
2022-11-16T01:05:01.154Z,52341.79
2022-11-16T01:07:33.994Z,52363.49
2022-11-16T01:10:05.961Z,52352.24
2022-11-16T01:12:37.477Z,52364.30
2022-11-16T01:15:10.470Z,52356.26
2022-11-16T01:17:42.028Z,52355.05
2022-11-16T01:20:15.925Z,52366.30
2022-11-16T01:22:47.479Z,52354.66
2022-11-16T01:25:19.158Z,52373.95
2022-11-16T01:27:50.797Z,52354.25
2022-11-16T01:30:30.948Z,52345.81
2022-11-16T01:33:08.956Z,52349.83
2022-11-16T01:35:40.904Z,52345.01
2022-11-16T01:38:12.907Z,52356.26
2022-11-16T01:40:42.821Z,52337.37
2022-11-16T01:43:18.064Z,52343.40
2022-11-16T01:45:50.352Z,52330.14
2022-11-16T01:48:23.725Z,52351.04
2022-11-16T01:50:55.326Z,52365.11
2022-11-16T01:53:26.854Z,52360.68
2022-11-16T01:56:00.712Z,52366.71
2022-11-16T01:58:41.759Z,52352.64
2022-11-16T02:01:27.125Z,52359.88
2022-11-16T02:04:00.099Z,52351.04
2022-11-16T02:06:50.313Z,52356.26
2022-11-16T02:09:58.518Z,52351.84
2022-11-16T02:13:11.872Z,52350.23
2022-11-16T02:15:49.589Z,52353.85
2022-11-16T02:18:31.524Z,52336.17
2022-11-16T02:21:20.048Z,52360.28
2022-11-16T02:24:16.303Z,52353.05
2022-11-16T02:27:12.588Z,52357.06
2022-11-16T02:29:44.690Z,52376.36
2022-11-16T02:32:18.584Z,52358.27
2022-11-16T02:34:50.863Z,52374.75
2022-11-16T02:37:24.527Z,52352.24
2022-11-16T02:39:58.085Z,52355.86
2022-11-16T02:42:32.058Z,52358.27
2022-11-16T02:45:03.555Z,52322.50
2022-11-16T02:47:35.245Z,52349.83
2022-11-16T02:50:09.984Z,52367.52
2022-11-16T02:52:41.612Z,52365.50
2022-11-16T02:55:14.380Z,52350.63
2022-11-16T02:57:54.859Z,52345.81
2022-11-16T03:00:27.507Z,52369.52
2022-11-16T03:03:03.620Z,52352.24
2022-11-16T03:05:38.340Z,52338.98
2022-11-16T03:08:27.792Z,52360.68
2022-11-16T03:11:22.449Z,52367.52
2022-11-16T03:13:54.461Z,52350.24
2022-11-16T03:16:27.988Z,52347.41
2022-11-16T03:19:01.290Z,52355.05
2022-11-16T03:21:34.850Z,52363.09
2022-11-16T03:24:07.253Z,52355.05
2022-11-16T03:26:43.647Z,52354.25
2022-11-16T03:29:19.748Z,52367.51
2022-11-16T03:31:55.920Z,52350.63
2022-11-16T03:34:30.092Z,52365.10
2022-11-16T03:37:01.672Z,52352.64
2022-11-16T03:39:35.113Z,52351.44
2022-11-16T03:42:07.957Z,52359.88
2022-11-16T03:44:40.078Z,52352.64
2022-11-16T03:47:11.817Z,52353.45
2022-11-16T03:49:46.737Z,52332.55
2022-11-16T03:52:19.205Z,52361.89
2022-11-16T03:54:51.787Z,52364.30
2022-11-16T03:57:23.415Z,52363.49
2022-11-16T03:59:58.557Z,52362.69
2022-11-16T04:02:30.060Z,52367.51
2022-11-16T04:05:20.254Z,52350.63
2022-11-16T04:08:10.154Z,52353.05
2022-11-16T04:10:59.361Z,52364.70
2022-11-16T04:13:49.866Z,52351.04
2022-11-16T04:16:39.164Z,52340.99
2022-11-16T04:19:30.491Z,52340.99
2022-11-16T04:22:20.178Z,52365.51
2022-11-16T04:24:52.822Z,52364.70
2022-11-16T04:27:43.626Z,52356.26
2022-11-16T04:30:16.405Z,52358.27
2022-11-16T04:33:05.871Z,52353.85
2022-11-16T04:35:55.399Z,52350.23
2022-11-16T04:38:27.832Z,52368.32
2022-11-16T04:40:59.383Z,52359.88
2022-11-16T04:43:30.776Z,52345.81
2022-11-16T04:46:19.920Z,52371.13
2022-11-16T04:48:51.305Z,52353.45
2022-11-16T04:51:22.734Z,52361.09
2022-11-16T04:53:54.156Z,52355.46
2022-11-16T04:56:26.697Z,52362.29
2022-11-16T04:58:58.428Z,52353.45
2022-11-16T05:01:44.363Z,52355.05
2022-11-16T05:04:15.960Z,52369.52
2022-11-16T05:06:48.446Z,52354.65
2022-11-16T05:09:19.987Z,52360.68
2022-11-16T05:11:52.240Z,52352.64
2022-11-16T05:14:22.094Z,52361.08
2022-11-16T05:16:53.910Z,52361.08
2022-11-16T05:19:43.247Z,52360.28
2022-11-16T05:22:14.947Z,52351.84
2022-11-16T05:24:47.124Z,52338.98
2022-11-16T05:27:17.396Z,52355.86
2022-11-16T05:29:49.812Z,52349.83
2022-11-16T05:32:23.915Z,52357.87
2022-11-16T05:34:55.902Z,52350.24
2022-11-16T05:37:27.758Z,52355.05
2022-11-16T05:39:59.157Z,52358.27
2022-11-16T05:42:40.479Z,52356.66
2022-11-16T05:45:18.406Z,52351.44
2022-11-16T05:47:52.945Z,52353.45
2022-11-16T05:50:25.113Z,52359.48
2022-11-16T05:53:07.665Z,52355.46
2022-11-16T05:55:39.910Z,52353.05
2022-11-16T05:58:12.032Z,52353.05
2022-11-16T06:00:43.671Z,52342.60
2022-11-16T06:03:13.860Z,52360.68
2022-11-16T06:05:46.319Z,52364.30
2022-11-16T06:08:19.241Z,52334.96
2022-11-16T06:10:49.359Z,52366.71
2022-11-16T06:13:21.168Z,52361.49
2022-11-16T06:15:54.097Z,52352.64
2022-11-16T06:18:23.816Z,52356.66
2022-11-16T06:20:55.591Z,52356.66
2022-11-16T06:23:25.414Z,52349.03
2022-11-16T06:25:58.144Z,52356.26
2022-11-16T06:28:31.033Z,52370.33
2022-11-16T06:31:03.388Z,52343.00
2022-11-16T06:33:39.448Z,52355.86
2022-11-16T06:36:15.426Z,52357.07
2022-11-16T06:38:47.788Z,52356.26
2022-11-16T06:41:20.100Z,52349.02
2022-11-16T06:43:54.196Z,52369.93
2022-11-16T06:46:29.006Z,52351.44
2022-11-16T06:49:05.565Z,52355.05
2022-11-16T06:51:39.258Z,52347.82
2022-11-16T06:54:15.491Z,52357.87
2022-11-16T06:56:48.482Z,52328.93
2022-11-16T06:59:24.870Z,52344.21
2022-11-16T07:01:58.498Z,52338.98
2022-11-16T07:04:33.402Z,52339.79
2022-11-16T07:07:12.595Z,52338.18
2022-11-16T07:09:45.954Z,52355.05
2022-11-16T07:12:19.921Z,52352.65
2022-11-16T07:14:54.571Z,52343.00
2022-11-16T07:17:27.216Z,52352.24
2022-11-16T07:20:04.113Z,52357.87
2022-11-16T07:22:37.965Z,52354.25
2022-11-16T07:25:16.583Z,52351.84
2022-11-16T07:27:50.966Z,52331.34
2022-11-16T07:30:23.875Z,52349.83
2022-11-16T07:33:24.077Z,52335.37
2022-11-16T07:36:19.172Z,52329.34
2022-11-16T07:39:08.663Z,52340.59
2022-11-16T07:41:47.464Z,52325.32
2022-11-16T07:44:37.037Z,52334.16
2022-11-16T07:47:17.064Z,52324.91
2022-11-16T07:49:50.901Z,52348.63
2022-11-16T07:52:27.539Z,52329.74
2022-11-16T07:55:13.139Z,52320.50
2022-11-16T07:57:57.041Z,52321.30
2022-11-16T08:00:30.363Z,52321.70
2022-11-16T08:03:13.632Z,52334.96
2022-11-16T08:05:53.056Z,52326.52
2022-11-16T08:08:37.419Z,52326.12
2022-11-16T08:30:10.229Z,52324.51
2022-11-16T08:32:46.064Z,52308.84
2022-11-16T08:35:19.322Z,52330.54
2022-11-16T08:38:06.186Z,52334.96
2022-11-16T08:40:38.858Z,52327.33
2022-11-16T08:43:11.335Z,52303.62
2022-11-16T08:45:43.017Z,52318.89
2022-11-16T08:48:15.580Z,52326.93
2022-11-16T08:51:15.813Z,52311.65
2022-11-16T08:53:40.194Z,52307.23
2022-11-16T08:56:13.532Z,52312.86
2022-11-16T08:58:47.593Z,52322.10
2022-11-16T09:01:20.672Z,52301.61
2022-11-16T09:03:52.311Z,52308.44
2022-11-16T09:06:23.991Z,52312.05
2022-11-16T09:08:55.604Z,52310.45
2022-11-16T09:11:27.394Z,52312.05
2022-11-16T09:13:59.266Z,52312.05
2022-11-16T09:16:29.266Z,52315.68
2022-11-16T09:19:01.131Z,52304.02
2022-11-16T09:21:32.945Z,52315.68
2022-11-16T09:24:05.266Z,52318.08
2022-11-16T09:26:36.887Z,52309.24
2022-11-16T09:29:09.065Z,52303.62
2022-11-16T09:31:40.763Z,52311.25
2022-11-16T09:34:13.338Z,52312.46
2022-11-16T09:36:43.701Z,52305.63
2022-11-16T09:39:30.646Z,52304.02
2022-11-16T09:42:08.926Z,52307.23
2022-11-16T09:44:53.889Z,52317.68
2022-11-16T09:47:28.464Z,52316.88
2022-11-16T09:50:04.134Z,52293.17
2022-11-16T09:52:37.888Z,52301.20
2022-11-16T09:55:21.900Z,52320.09
2022-11-16T09:57:53.976Z,52306.83
2022-11-16T10:00:26.432Z,52304.42
2022-11-16T10:03:03.594Z,52313.26
2022-11-16T10:05:37.087Z,52311.25
2022-11-16T10:08:12.306Z,52315.27
2022-11-16T10:10:49.351Z,52302.01
2022-11-16T10:13:28.496Z,52295.98
2022-11-16T10:16:04.735Z,52311.25
2022-11-16T10:18:47.057Z,52305.23
2022-11-16T10:21:27.592Z,52301.61
2022-11-16T10:24:07.029Z,52308.04
2022-11-16T10:26:42.198Z,52312.86
2022-11-16T10:29:20.805Z,52297.19
2022-11-16T10:31:58.889Z,52315.67
2022-11-16T10:34:32.461Z,52313.66
2022-11-16T10:37:04.775Z,52308.04
2022-11-16T10:39:41.167Z,52307.24
2022-11-16T10:42:16.091Z,52299.20
2022-11-16T10:44:49.160Z,52302.81
2022-11-16T10:47:22.730Z,52322.91
2022-11-16T10:49:57.501Z,52308.04
2022-11-16T10:52:29.221Z,52302.81
2022-11-16T10:55:00.806Z,52316.07
2022-11-16T10:57:52.120Z,52328.53
2022-11-16T11:00:38.841Z,52324.91
2022-11-16T11:03:12.295Z,52305.63
2022-11-16T11:05:53.892Z,52322.51
2022-11-16T11:08:30.718Z,52289.55
2022-11-16T11:11:03.502Z,52327.32
2022-11-16T11:13:35.440Z,52315.67
2022-11-16T11:16:20.669Z,52316.48
2022-11-16T11:18:53.222Z,52317.28
2022-11-16T11:21:25.645Z,52301.21
2022-11-16T11:24:16.079Z,52330.94
2022-11-16T11:26:54.447Z,52311.25
2022-11-16T11:29:29.088Z,52320.09
2022-11-16T11:32:01.755Z,52328.13
2022-11-16T11:34:36.003Z,52323.30
2022-11-16T11:37:07.779Z,52330.54
2022-11-16T11:39:40.137Z,52316.07
2022-11-16T11:42:24.129Z,52305.63
2022-11-16T11:45:01.484Z,52318.09
2022-11-16T11:48:00.574Z,52334.96
2022-11-16T11:50:44.170Z,52327.73
2022-11-16T11:53:25.784Z,52323.31
2022-11-16T11:55:59.087Z,52320.49
2022-11-16T11:58:32.825Z,52323.71
2022-11-16T12:01:18.400Z,52327.73
2022-11-16T12:04:27.517Z,52316.88
2022-11-16T12:07:00.416Z,52314.07
2022-11-16T12:09:37.151Z,52334.16
2022-11-16T12:12:20.804Z,52318.48
2022-11-16T12:14:59.308Z,52319.29
2022-11-16T12:17:34.820Z,52337.77
2022-11-16T12:20:20.021Z,52329.74
2022-11-16T12:23:15.612Z,52319.69
2022-11-16T12:25:50.519Z,52335.77
2022-11-16T12:28:28.345Z,52333.36
2022-11-16T12:31:16.348Z,52333.76
2022-11-16T12:33:49.876Z,52332.95
2022-11-16T12:36:26.300Z,52325.32
2022-11-16T12:39:02.957Z,52326.52
2022-11-16T12:42:02.694Z,52338.58
2022-11-16T12:44:42.334Z,52318.08
2022-11-16T12:47:16.008Z,52324.51
2022-11-16T12:49:59.468Z,52310.45
2022-11-16T12:52:39.673Z,52322.10
2022-11-16T12:55:32.165Z,52329.74
2022-11-16T12:58:11.997Z,52330.14
2022-11-16T13:00:51.527Z,52326.12
2022-11-16T13:03:25.221Z,52320.89
2022-11-16T13:06:00.172Z,52330.14
2022-11-16T13:08:49.957Z,52322.50
2022-11-16T13:11:24.415Z,52350.64
2022-11-16T13:13:59.337Z,52321.30
2022-11-16T13:16:31.001Z,52333.76
2022-11-16T13:19:02.977Z,52342.20
2022-11-16T13:21:40.386Z,52342.20
2022-11-16T13:24:17.523Z,52323.31
2022-11-16T13:26:53.130Z,52353.45
2022-11-16T13:29:27.951Z,52335.77
2022-11-16T13:32:02.397Z,52329.34
2022-11-16T13:34:35.745Z,52346.61
2022-11-16T13:37:29.066Z,52322.50
2022-11-16T13:40:21.717Z,52323.30
2022-11-16T13:43:06.744Z,52334.56
2022-11-16T13:45:39.586Z,52324.11
2022-11-16T13:48:24.798Z,52340.59
2022-11-16T13:50:57.738Z,52321.70
2022-11-16T13:54:25.138Z,52348.63
2022-11-16T13:56:28.547Z,52336.57
2022-11-16T13:59:00.836Z,52341.79
2022-11-16T14:01:55.841Z,52325.32
2022-11-16T14:04:43.777Z,52339.38
2022-11-16T14:07:33.982Z,52343.80
2022-11-16T14:10:08.183Z,52342.60
2022-11-16T14:12:59.799Z,52324.51
2022-11-16T14:15:35.733Z,52343.00
2022-11-16T14:18:37.568Z,52322.91
2022-11-16T14:21:09.411Z,52338.58
2022-11-16T14:23:57.428Z,52310.04
2022-11-16T14:26:43.889Z,52330.14
2022-11-16T14:29:28.015Z,52318.48
2022-11-16T14:31:59.719Z,52336.57
2022-11-16T14:34:31.606Z,52334.96
2022-11-16T14:37:03.454Z,52334.96
2022-11-16T14:39:38.561Z,52334.16
2022-11-16T14:42:16.732Z,52346.62
2022-11-16T14:44:48.294Z,52349.83
2022-11-16T14:47:26.052Z,52341.39
2022-11-16T14:49:57.766Z,52358.27
2022-11-16T14:52:30.258Z,52357.87
2022-11-16T14:55:03.736Z,52334.16
2022-11-16T14:57:35.470Z,52347.02
2022-11-16T15:00:20.615Z,52351.84
2022-11-16T15:02:57.600Z,52352.24
2022-11-16T15:05:34.619Z,52356.66
2022-11-16T15:08:14.404Z,52352.64
2022-11-16T15:10:52.211Z,52338.18
2022-11-16T15:13:25.540Z,52342.60
2022-11-16T15:19:02.531Z,52351.04
2022-11-16T15:21:34.693Z,52349.43
2022-11-16T15:24:35.577Z,52343.80
2022-11-16T15:26:59.340Z,52353.45
2022-11-16T15:29:34.055Z,52338.58
2022-11-16T15:32:05.827Z,52329.34
2022-11-16T15:34:35.482Z,52341.79
2022-11-16T15:37:07.569Z,52346.62
2022-11-16T15:39:39.442Z,52356.26
2022-11-16T15:42:13.450Z,52359.88
2022-11-16T15:44:45.037Z,52355.86
2022-11-16T15:47:16.856Z,52338.18
2022-11-16T15:49:50.022Z,52323.71
2022-11-16T15:52:55.064Z,52343.00
2022-11-16T15:55:30.876Z,52353.45
2022-11-16T15:58:04.607Z,52325.32
2022-11-16T16:00:37.789Z,52349.03
2022-11-16T16:03:17.607Z,52348.22
2022-11-16T16:05:49.667Z,52352.24
2022-11-16T16:08:32.804Z,52351.44
2022-11-16T16:11:06.674Z,52351.45
2022-11-16T16:13:39.213Z,52352.24
2022-11-16T16:16:31.844Z,52351.04
2022-11-16T16:19:09.524Z,52333.35
2022-11-16T16:21:46.081Z,52330.54
2022-11-16T16:24:41.909Z,52347.82
2022-11-16T16:27:15.566Z,52368.32
2022-11-16T16:29:47.815Z,52357.47
2022-11-16T16:32:24.294Z,52342.20
2022-11-16T16:34:55.908Z,52369.13
2022-11-16T16:37:30.227Z,52365.11
2022-11-16T16:40:01.872Z,52357.47
2022-11-16T16:42:31.783Z,52361.09
2022-11-16T16:45:03.653Z,52367.52
2022-11-16T16:47:35.027Z,52357.47
2022-11-16T16:50:08.304Z,52365.51
2022-11-16T16:52:40.194Z,52350.64
2022-11-16T16:55:12.369Z,52357.87
2022-11-16T16:57:43.788Z,52359.88
2022-11-16T17:00:17.542Z,52362.70
2022-11-16T17:02:49.458Z,52352.64
2022-11-16T17:05:21.085Z,52342.60
2022-11-16T17:07:52.448Z,52363.90
2022-11-16T17:10:24.162Z,52347.42
2022-11-16T17:12:58.279Z,52356.26
2022-11-16T17:15:29.878Z,52358.27
2022-11-16T17:18:02.109Z,52351.04
2022-11-16T17:20:33.620Z,52361.89
2022-11-16T17:23:05.155Z,52339.38
2022-11-16T17:25:37.099Z,52362.29
2022-11-16T17:28:08.617Z,52348.63
2022-11-16T17:30:40.181Z,52358.67
2022-11-16T17:33:12.075Z,52336.97
2022-11-16T17:35:42.003Z,52347.02
2022-11-16T17:38:13.502Z,52360.68
2022-11-16T17:40:44.938Z,52356.66
2022-11-16T17:43:16.633Z,52354.25
2022-11-16T17:45:48.710Z,52347.42
2022-11-16T17:48:20.153Z,52338.98
2022-11-16T17:50:51.675Z,52354.25
2022-11-16T17:53:23.902Z,52361.09
2022-11-16T17:55:56.741Z,52361.08
2022-11-16T17:58:28.449Z,52345.01
2022-11-16T18:00:59.854Z,52352.25
2022-11-16T18:03:31.866Z,52359.88
2022-11-16T18:06:07.911Z,52353.04
2022-11-16T18:08:39.407Z,52355.46
2022-11-16T18:11:11.751Z,52348.22
2022-11-16T18:13:43.809Z,52348.23
2022-11-16T18:16:16.419Z,52361.48
2022-11-16T18:18:48.157Z,52362.29
2022-11-16T18:21:20.640Z,52367.91
2022-11-16T18:23:52.884Z,52364.30
2022-11-16T18:26:25.094Z,52376.35
2022-11-16T18:28:56.794Z,52357.46
2022-11-16T18:31:30.068Z,52351.84
2022-11-16T18:34:01.920Z,52363.09
2022-11-16T18:36:33.723Z,52367.91
2022-11-16T18:39:05.496Z,52372.34
2022-11-16T18:41:38.693Z,52378.77
2022-11-16T18:44:13.834Z,52370.73
2022-11-16T18:46:45.736Z,52373.54
2022-11-16T18:49:17.252Z,52352.64
2022-11-16T18:51:50.078Z,52369.12
2022-11-16T18:54:21.872Z,52357.87
2022-11-16T18:56:53.494Z,52362.29
2022-11-16T18:59:26.247Z,52365.90
2022-11-16T19:01:58.513Z,52363.50
2022-11-16T19:04:30.514Z,52372.34
2022-11-16T19:07:02.505Z,52365.50
2022-11-16T19:09:32.487Z,52369.12
2022-11-16T19:12:04.424Z,52356.66
2022-11-16T19:14:36.131Z,52365.91
2022-11-16T19:17:07.886Z,52379.17
2022-11-16T19:19:39.529Z,52372.34
2022-11-16T19:22:11.740Z,52366.31
2022-11-16T19:24:43.425Z,52363.89
2022-11-16T19:27:13.829Z,52366.31
2022-11-16T19:29:45.483Z,52366.31
2022-11-16T19:32:17.427Z,52364.70
2022-11-16T19:34:49.161Z,52367.52
2022-11-16T19:37:18.963Z,52392.43
2022-11-16T19:39:50.377Z,52363.50
2022-11-16T19:42:21.980Z,52374.35
2022-11-16T19:44:53.600Z,52366.71
2022-11-16T19:47:26.795Z,52363.89
2022-11-16T19:49:58.921Z,52366.30
2022-11-16T19:52:31.041Z,52369.52
2022-11-16T19:55:02.926Z,52363.49
2022-11-16T19:57:34.744Z,52356.26
2022-11-16T20:00:07.011Z,52364.30
2022-11-16T20:02:39.014Z,52369.12
2022-11-16T20:05:12.474Z,52365.10
2022-11-16T20:07:44.945Z,52372.74
2022-11-16T20:10:16.922Z,52345.01
2022-11-16T20:12:50.476Z,52359.08
2022-11-16T20:15:24.439Z,52346.62
2022-11-16T20:17:55.869Z,52361.49
2022-11-16T20:20:28.163Z,52357.07
2022-11-16T20:22:58.175Z,52360.28
2022-11-16T20:25:30.351Z,52356.66
2022-11-16T20:28:02.012Z,52371.13
2022-11-16T20:30:31.808Z,52379.57
2022-11-16T20:33:03.288Z,52367.11
2022-11-16T20:35:35.915Z,52374.34
2022-11-16T20:38:07.872Z,52369.12
2022-11-16T20:40:40.099Z,52368.32
2022-11-16T20:43:14.702Z,52359.48
2022-11-16T20:45:46.035Z,52373.54
2022-11-16T20:48:17.619Z,52370.73
2022-11-16T20:50:54.258Z,52375.15
2022-11-16T20:53:26.783Z,52366.31
2022-11-16T20:55:58.888Z,52361.89
2022-11-16T20:58:30.319Z,52362.70
2022-11-16T21:01:03.962Z,52375.95
2022-11-16T21:03:35.782Z,52378.37
2022-11-16T21:06:09.094Z,52377.16
2022-11-16T21:08:40.559Z,52375.96
2022-11-16T21:11:16.222Z,52371.13
2022-11-16T21:14:06.844Z,52369.52
2022-11-16T21:16:38.535Z,52357.47
2022-11-16T21:19:08.524Z,52376.36
2022-11-16T21:21:41.026Z,52372.74
2022-11-16T21:24:12.921Z,52363.49
2022-11-16T21:26:44.550Z,52369.52
2022-11-16T21:29:15.975Z,52385.20
2022-11-16T21:31:47.533Z,52376.76
2022-11-16T21:34:20.443Z,52377.96
2022-11-16T21:36:54.176Z,52361.89
2022-11-16T21:39:26.255Z,52369.93
2022-11-16T21:41:57.809Z,52382.79
2022-11-16T21:44:42.096Z,52371.93
2022-11-16T21:47:13.836Z,52372.74
2022-11-16T21:50:08.611Z,52368.72
2022-11-16T21:52:36.718Z,52373.14
2022-11-16T21:55:09.388Z,52377.96
2022-11-16T21:57:40.814Z,52381.58
2022-11-16T22:00:15.393Z,52361.09
2022-11-16T22:02:47.025Z,52369.12
2022-11-16T22:05:36.254Z,52373.95
2022-11-16T22:08:12.630Z,52369.52
2022-11-16T22:10:43.999Z,52374.74
2022-11-16T22:13:15.536Z,52383.59
2022-11-16T22:15:45.771Z,52375.15
2022-11-16T22:18:17.259Z,52383.99
2022-11-16T22:20:51.157Z,52375.96
2022-11-16T22:23:34.553Z,52372.34
2022-11-16T22:26:06.769Z,52367.91
2022-11-16T22:28:38.776Z,52369.52
2022-11-16T22:31:11.209Z,52372.74
2022-11-16T22:33:43.352Z,52370.33
2022-11-16T22:36:15.352Z,52385.60
2022-11-16T22:38:46.898Z,52365.91
2022-11-16T22:41:20.358Z,52384.39
2022-11-16T22:43:51.833Z,52376.36
2022-11-16T22:46:23.383Z,52384.39
2022-11-16T22:48:53.467Z,52382.79
2022-11-16T22:51:26.579Z,52358.68
2022-11-16T22:53:58.790Z,52365.91
2022-11-16T22:56:30.461Z,52387.21
2022-11-16T22:59:02.840Z,52372.34
2022-11-16T23:01:34.489Z,52352.65
2022-11-16T23:04:06.723Z,52361.89
2022-11-16T23:06:38.325Z,52363.49
2022-11-16T23:09:10.474Z,52343.00
2022-11-16T23:12:00.396Z,52354.65
2022-11-16T23:14:50.200Z,52367.11
2022-11-16T23:17:21.949Z,52360.28
2022-11-16T23:20:17.287Z,52376.36
2022-11-16T23:23:06.909Z,52375.55
2022-11-16T23:25:56.390Z,52370.32
2022-11-16T23:28:28.486Z,52360.28
2022-11-16T23:31:00.091Z,52369.12
2022-11-16T23:33:45.541Z,52372.34
2022-11-16T23:36:17.087Z,52363.90
2022-11-16T23:38:47.124Z,52381.98
2022-11-16T23:41:36.381Z,52363.49
2022-11-16T23:44:08.314Z,52362.70
2022-11-16T23:46:38.150Z,52368.32
